La Quiaca, Argentina
Current Conditions -  °F | °C
As of 1:00 PM on Thursday 30 Oct 2014 (Local Time) from SLTJ Reporting Station
Few Clouds Few Clouds  
Wind Chill: 81°   Ceiling: Unl
Heat Index: 82°   Visibility: 6mi
Dew Point: 63°   Wind: 12mph
Humidity: 54%   Direction: 130°SE
Pressure: 29.94"   Gusts: NA
Location:  22.11°S, 65.59°W
Report Text: SLTJ 301600Z 13010KT 9999 FEW033 FEW036CB 27/17 Q1014
Loading
Personal Weather Stations






























Interactive Weather Map New forecast layout! Learn more

10-Day Weather Forecast

Advertisements
Track Severe Weather on mobile